Time;durP1;ratioP1;P1;durP2;ratioP2;P2;SDS_P1;SDS_P2;PMS_P1;PMS_P2;Temp;Humidity;BMP_temperature;BMP_pressure;BME280_temperature;BME280_humidity;BME280_pressure;Samples;Min_cycle;Max_cycle;Signal;HPM_P1;HPM_P2
2022/01/17 06:36:26;;;;;;;;;52.75;42.25;;;;;4.44;84.06;103447.25;5104423;27;49868;-62
2022/01/17 06:38:51;;;;;;;;;46.50;42.50;;;;;4.69;83.60;103457.19;5085966;27;49969;-63
2022/01/17 06:41:18;;;;;;;;;50.75;44.00;;;;;4.72;82.75;103441.84;5087022;27;50041;-68
2022/01/17 06:43:44;;;;;;;;;64.00;48.25;;;;;4.98;82.87;103470.13;5086880;27;49885;-61
2022/01/17 06:46:09;;;;;;;;;55.00;43.50;;;;;5.06;82.51;103471.72;5086889;27;49905;-62
2022/01/17 06:48:35;;;;;;;;;56.75;46.25;;;;;5.10;81.63;103452.97;5087040;27;49762;-62
2022/01/17 06:51:00;;;;;;;;;53.00;43.00;;;;;5.12;81.14;103451.41;5087323;27;49736;-62
2022/01/17 06:53:27;;;;;;;;;50.50;45.25;;;;;5.29;80.51;103478.88;5086980;27;49782;-62
2022/01/17 06:55:54;;;;;;;;;54.50;46.25;;;;;5.50;80.14;103475.50;5086945;27;49790;-63
2022/01/17 06:58:20;;;;;;;;;42.75;39.50;;;;;5.50;80.13;103462.50;5086767;27;49782;-63
2022/01/17 07:00:46;;;;;;;;;42.50;39.25;;;;;5.58;80.21;103453.59;5087002;27;49584;-67
2022/01/17 07:03:11;;;;;;;;;46.50;41.00;;;;;5.61;79.97;103446.06;5086613;27;49955;-63
2022/01/17 07:05:36;;;;;;;;;33.25;31.50;;;;;5.59;79.33;103436.25;5086801;27;49813;-63
2022/01/17 07:08:02;;;;;;;;;61.25;48.50;;;;;5.74;79.07;103459.31;5086713;27;49676;-62
2022/01/17 07:10:28;;;;;;;;;52.50;40.50;;;;;5.65;78.39;103428.97;5087080;27;49758;-66
2022/01/17 07:12:54;;;;;;;;;40.00;37.50;;;;;5.86;78.39;103477.66;5086139;27;50469;-62
2022/01/17 07:15:20;;;;;;;;;47.75;41.75;;;;;5.82;77.71;103480.81;5086144;27;49748;-62
2022/01/17 07:17:45;;;;;;;;;57.50;47.00;;;;;5.90;77.82;103494.50;5071927;27;49875;-63
2022/01/17 07:20:11;;;;;;;;;55.50;44.25;;;;;5.84;77.62;103509.59;5065677;27;50036;-63
2022/01/17 07:22:36;;;;;;;;;54.75;45.75;;;;;5.91;77.78;103527.63;5065578;27;50729;-63
2022/01/17 07:25:03;;;;;;;;;53.50;45.75;;;;;5.99;77.98;103531.78;5066553;27;49774;-63
2022/01/17 07:27:28;;;;;;;;;60.50;46.75;;;;;5.73;77.44;103480.03;5066324;27;49679;-70
2022/01/17 07:31:09;;;;;;;;;48.75;40.00;;;;;5.83;77.40;103479.13;5107492;27;49596;-64
2022/01/17 07:33:37;;;;;;;;;54.25;42.50;;;;;5.84;76.94;103474.03;5086596;27;49828;-64
2022/01/17 07:36:05;;;;;;;;;56.00;45.25;;;;;5.92;76.58;103467.78;5087936;27;49649;-64
2022/01/17 07:38:31;;;;;;;;;52.50;42.25;;;;;6.07;77.25;103488.06;5088464;27;50911;-63
2022/01/17 07:40:56;;;;;;;;;58.00;45.75;;;;;5.89;76.74;103464.91;5101175;27;49874;-63
2022/01/17 07:43:21;;;;;;;;;50.00;44.00;;;;;5.95;76.56;103455.00;5099614;27;49783;-63
2022/01/17 07:46:04;;;;;;;;;57.25;46.00;;;;;6.20;76.22;103485.72;5097789;27;49640;-68
2022/01/17 07:51:15;;;;;;;;;46.00;41.50;;;;;6.00;75.86;103456.31;5095009;27;49823;-64
2022/01/17 07:53:41;;;;;;;;;60.25;45.50;;;;;6.08;75.94;103484.69;5087248;27;50113;-64
2022/01/17 07:56:06;;;;;;;;;47.25;40.75;;;;;6.10;75.50;103507.50;5101511;27;49777;-63
2022/01/17 07:58:32;;;;;;;;;51.50;43.25;;;;;6.11;75.19;103505.81;5091742;27;50948;-63
2022/01/17 08:00:57;;;;;;;;;57.00;45.50;;;;;6.03;75.51;103503.47;5097119;27;49727;-64
2022/01/17 08:03:23;;;;;;;;;43.25;41.00;;;;;6.15;75.70;103513.09;5083619;27;49616;-62
2022/01/17 08:05:48;;;;;;;;;59.75;49.75;;;;;6.09;75.66;103503.09;5088458;27;49765;-64
2022/01/17 08:08:13;;;;;;;;;47.50;40.25;;;;;6.12;75.62;103494.59;5087248;27;50637;-63
2022/01/17 08:10:39;;;;;;;;;55.25;44.25;;;;;6.11;75.65;103498.91;5089023;27;49669;-66
2022/01/17 08:13:04;;;;;;;;;59.00;46.25;;;;;6.21;75.04;103516.22;5069652;27;50174;-65
2022/01/17 08:15:31;;;;;;;;;46.50;41.75;;;;;6.03;75.28;103505.19;5085297;27;49949;-65
2022/01/17 08:17:57;;;;;;;;;61.25;42.00;;;;;6.02;75.16;103491.22;5070863;27;50455;-66
2022/01/17 08:20:22;;;;;;;;;51.50;40.75;;;;;6.26;74.69;103527.94;5086565;27;49705;-66
2022/01/17 08:22:48;;;;;;;;;54.00;46.25;;;;;6.16;74.62;103512.31;5086820;27;49782;-66
2022/01/17 08:25:14;;;;;;;;;48.75;43.50;;;;;6.27;74.63;103548.00;5086933;27;49680;-65
2022/01/17 08:27:39;;;;;;;;;52.25;43.25;;;;;6.11;74.42;103521.47;5086389;27;49755;-65
2022/01/17 08:30:05;;;;;;;;;56.50;44.25;;;;;6.14;75.17;103522.63;5074777;27;49641;-65
2022/01/17 08:32:32;;;;;;;;;43.25;38.75;;;;;6.30;75.39;103516.97;5066751;27;49749;-65
2022/01/17 08:34:58;;;;;;;;;56.00;46.00;;;;;6.37;75.36;103515.75;5066715;27;49569;-66
2022/01/17 08:37:25;;;;;;;;;57.75;46.00;;;;;6.42;75.12;103530.09;5066857;27;51171;-67
2022/01/17 08:39:51;;;;;;;;;49.50;43.00;;;;;6.42;75.78;103530.09;5048259;27;49706;-65
2022/01/17 08:42:16;;;;;;;;;46.25;43.00;;;;;6.50;75.57;103536.88;5035757;28;49791;-66
2022/01/17 08:44:49;;;;;;;;;50.25;41.25;;;;;6.59;75.03;103545.44;5048185;28;49571;-66
2022/01/17 08:47:14;;;;;;;;;55.50;41.50;;;;;6.69;75.46;103553.22;5052874;28;50833;-66
2022/01/17 08:49:40;;;;;;;;;52.25;42.75;;;;;6.80;76.33;103549.78;5052836;28;49768;-66
2022/01/17 08:52:06;;;;;;;;;48.50;42.00;;;;;6.86;76.14;103547.69;5052851;28;50054;-66
2022/01/17 08:54:31;;;;;;;;;58.00;43.00;;;;;6.86;75.79;103525.88;5052783;28;49648;-66
2022/01/17 08:56:56;;;;;;;;;60.00;43.00;;;;;7.15;75.83;103563.06;5052734;28;50736;-65
2022/01/17 08:59:22;;;;;;;;;55.25;44.25;;;;;7.19;75.94;103551.13;5052555;28;49630;-65
2022/01/17 09:01:47;;;;;;;;;54.50;43.00;;;;;7.34;76.20;103564.50;5052769;28;49671;-67
2022/01/17 09:04:12;;;;;;;;;54.75;44.50;;;;;7.32;75.46;103538.22;5053007;28;50001;-67
2022/01/17 09:06:38;;;;;;;;;50.00;42.75;;;;;7.29;74.83;103517.09;5034274;28;51139;-67
2022/01/17 09:09:03;;;;;;;;;48.50;42.00;;;;;7.47;75.13;103536.81;5034252;28;49802;-67
2022/01/17 09:11:29;;;;;;;;;58.25;49.00;;;;;7.69;75.11;103573.38;5052714;28;50026;-67
2022/01/17 09:13:54;;;;;;;;;55.25;44.25;;;;;7.73;74.74;103564.06;5052665;28;50019;-65
2022/01/17 09:16:20;;;;;;;;;47.00;41.00;;;;;7.71;74.81;103557.78;5052398;28;50628;-65
2022/01/17 09:18:45;;;;;;;;;40.50;37.00;;;;;7.83;74.77;103566.59;5052468;28;49916;-65
2022/01/17 09:21:11;;;;;;;;;50.75;40.75;;;;;7.92;74.01;103572.53;5052503;28;49832;-65
2022/01/17 09:23:37;;;;;;;;;44.00;39.75;;;;;7.82;73.49;103550.78;5052678;28;49915;-66
2022/01/17 09:26:03;;;;;;;;;43.00;38.75;;;;;8.01;73.52;103577.56;5052619;28;52192;-66
2022/01/17 09:28:28;;;;;;;;;50.75;41.00;;;;;8.19;73.21;103606.78;5051968;28;49660;-66
2022/01/17 09:30:54;;;;;;;;;38.00;34.75;;;;;8.14;73.26;103574.16;5051805;28;49623;-66
2022/01/17 09:33:20;;;;;;;;;50.00;40.00;;;;;8.23;72.82;103594.06;5052902;28;49895;-66
2022/01/17 09:35:45;;;;;;;;;48.25;39.50;;;;;8.28;74.11;103605.78;5052136;28;50835;-67
2022/01/17 09:38:10;;;;;;;;;41.00;34.50;;;;;8.21;73.52;103593.06;5052364;28;49704;-66
2022/01/17 09:40:36;;;;;;;;;44.25;37.75;;;;;8.31;73.12;103610.34;5052265;28;49951;-66
2022/01/17 09:43:02;;;;;;;;;48.25;40.50;;;;;8.33;71.90;103624.47;5033857;28;50023;-66
2022/01/17 09:45:30;;;;;;;;;46.50;40.25;;;;;8.38;72.33;103622.22;5033876;28;51658;-67
2022/01/17 09:47:55;;;;;;;;;47.50;39.50;;;;;8.49;72.37;103623.91;5065978;28;49898;-66
2022/01/17 09:50:32;;;;;;;;;37.25;35.25;;;;;8.43;72.34;103606.06;5071619;28;49697;-66
2022/01/17 09:52:59;;;;;;;;;52.25;39.00;;;;;8.02;71.67;103514.88;5065041;28;49768;-66
2022/01/17 09:55:27;;;;;;;;;41.75;37.25;;;;;8.10;72.23;103522.38;5071153;28;49777;-66
2022/01/17 09:58:01;;;;;;;;;51.50;43.50;;;;;8.72;71.92;103623.94;5039665;28;49739;-66
2022/01/17 10:00:28;;;;;;;;;46.50;41.25;;;;;8.78;72.71;103631.31;5071267;28;49792;-66
2022/01/17 10:02:57;;;;;;;;;42.25;39.75;;;;;8.84;71.67;103637.94;5071482;28;49685;-67
2022/01/17 10:05:24;;;;;;;;;42.50;39.75;;;;;8.80;72.30;103627.13;5071094;28;49848;-66
2022/01/17 10:08:09;;;;;;;;;31.75;27.00;;;;;8.96;72.13;103647.47;5070895;28;50161;-68
2022/01/17 10:10:56;;;;;;;;;52.50;41.00;;;;;8.99;72.15;103647.72;5071290;28;49607;-66
2022/01/17 10:13:25;;;;;;;;;55.25;44.00;;;;;8.96;71.45;103629.16;5071189;28;49918;-67
2022/01/17 10:16:20;;;;;;;;;52.75;44.00;;;;;9.03;70.48;103642.81;5071134;28;49724;-67
2022/01/17 10:19:02;;;;;;;;;49.00;42.75;;;;;9.05;70.86;103643.81;5069012;28;49708;-67
2022/01/17 10:21:38;;;;;;;;;58.25;45.50;;;;;9.08;71.34;103651.94;5070918;28;49626;-67
2022/01/17 10:34:57;;;;;;;;;44.75;38.25;;;;;9.12;70.95;103642.56;5058256;28;49806;-67
2022/01/17 10:37:25;;;;;;;;;54.50;42.50;;;;;9.14;71.09;103648.81;5050852;28;49854;-66
2022/01/17 10:40:15;;;;;;;;;47.50;37.75;;;;;9.16;70.48;103655.09;5051097;28;49604;-66
2022/01/17 10:42:46;;;;;;;;;48.75;40.50;;;;;9.23;70.57;103651.22;5050998;28;49817;-69
2022/01/17 10:45:21;;;;;;;;;47.75;40.75;;;;;9.32;70.70;103679.00;5051317;28;49618;-67
2022/01/17 10:47:52;;;;;;;;;51.00;44.00;;;;;9.29;70.18;103652.56;5050718;28;50775;-68
2022/01/17 10:50:27;;;;;;;;;47.50;40.50;;;;;9.44;71.25;103652.75;5050892;28;49761;-68
2022/01/17 10:52:58;;;;;;;;;41.50;36.25;;;;;9.31;70.70;103610.72;5051361;28;50137;-66
2022/01/17 10:55:32;;;;;;;;;56.50;44.75;;;;;9.43;70.34;103624.69;5043771;28;49994;-67
2022/01/17 10:58:04;;;;;;;;;53.50;44.00;;;;;9.53;70.24;103615.78;5050707;28;50885;-68
2022/01/17 11:00:42;;;;;;;;;38.50;33.00;;;;;9.59;70.78;103606.63;5050985;28;49699;-66
2022/01/17 11:03:11;;;;;;;;;53.50;40.75;;;;;9.55;69.05;103578.34;5051262;28;49982;-67
2022/01/17 11:05:40;;;;;;;;;36.75;36.00;;;;;9.81;70.00;103616.00;5032886;28;50228;-68
2022/01/17 11:08:06;;;;;;;;;39.75;33.75;;;;;9.95;69.49;103620.50;5049415;28;51495;-66
2022/01/17 11:10:40;;;;;;;;;34.00;31.50;;;;;9.98;68.27;103625.94;5053837;28;49649;-66
2022/01/17 11:13:09;;;;;;;;;35.25;30.75;;;;;9.89;67.96;103601.69;5050836;28;50073;-68
2022/01/17 11:15:37;;;;;;;;;35.50;34.75;;;;;9.99;68.74;103596.25;5050966;28;49848;-67
2022/01/17 11:18:16;;;;;;;;;38.25;34.50;;;;;10.16;68.73;103624.56;5032289;28;51530;-66
2022/01/17 11:20:42;;;;;;;;;53.00;41.75;;;;;10.06;68.06;103602.84;5032341;28;49757;-68
2022/01/17 11:23:08;;;;;;;;;49.50;40.00;;;;;10.19;68.19;103614.28;5050312;28;49654;-68
2022/01/17 11:25:36;;;;;;;;;40.25;36.25;;;;;9.92;68.08;103570.41;5050921;28;49686;-68
2022/01/17 11:28:05;;;;;;;;;48.50;37.00;;;;;10.06;68.65;103595.88;5050156;28;50992;-68
2022/01/17 11:30:33;;;;;;;;;39.50;34.75;;;;;10.18;68.36;103599.34;5049928;28;49905;-67
2022/01/17 11:33:00;;;;;;;;;44.00;37.50;;;;;10.05;67.26;103570.44;5051162;28;49751;-67
2022/01/17 11:35:25;;;;;;;;;38.25;36.00;;;;;10.15;67.10;103588.63;5033097;28;49847;-65
2022/01/17 11:37:58;;;;;;;;;47.00;39.75;;;;;10.17;67.59;103588.72;5068750;28;50717;-66
2022/01/17 11:40:31;;;;;;;;;49.50;41.00;;;;;10.09;67.52;103572.47;5032753;28;49774;-68
2022/01/17 11:42:59;;;;;;;;;43.00;35.25;;;;;10.00;67.60;103549.13;5050305;28;49759;-67
2022/01/17 11:45:24;;;;;;;;;43.00;37.50;;;;;10.35;67.90;103599.59;5063709;28;49653;-65
2022/01/17 11:48:17;;;;;;;;;34.50;32.50;;;;;10.24;67.01;103584.03;5056536;28;50801;-66
2022/01/17 11:50:46;;;;;;;;;39.50;37.00;;;;;10.43;67.72;103598.41;5062241;28;49793;-65
2022/01/17 11:53:11;;;;;;;;;37.00;35.25;;;;;10.44;66.87;103602.84;5069572;28;49855;-64
2022/01/17 11:55:39;;;;;;;;;40.75;36.50;;;;;10.44;66.95;103613.34;5069680;28;49715;-65
2022/01/17 11:58:31;;;;;;;;;39.00;36.25;;;;;10.51;67.42;103610.28;5069036;28;49785;-65
2022/01/17 12:00:57;;;;;;;;;44.50;37.50;;;;;10.41;66.75;103577.25;5051095;28;49854;-66
2022/01/17 12:03:25;;;;;;;;;44.50;38.50;;;;;10.23;66.79;103545.47;5051353;28;49832;-66
2022/01/17 12:05:52;;;;;;;;;44.00;38.75;;;;;10.41;65.48;103598.25;5069718;28;49750;-65
2022/01/17 12:08:20;;;;;;;;;35.75;34.75;;;;;9.96;66.70;103506.84;5068978;28;50163;-65
2022/01/17 12:10:50;;;;;;;;;47.25;39.00;;;;;10.40;65.92;103572.81;5069133;28;49858;-66
2022/01/17 12:13:20;;;;;;;;;54.25;40.75;;;;;10.34;66.53;103563.66;5069060;28;49907;-65
2022/01/17 12:16:09;;;;;;;;;47.50;41.25;;;;;10.34;66.60;103558.41;5051616;28;49836;-65
2022/01/17 12:18:59;;;;;;;;;45.75;40.75;;;;;10.24;66.86;103543.75;5072704;28;51016;-65
2022/01/17 12:21:33;;;;;;;;;48.50;40.75;;;;;10.28;67.33;103572.91;5072878;28;49793;-65
2022/01/17 12:24:17;;;;;;;;;43.50;38.25;;;;;10.45;67.05;103623.94;5066534;28;49771;-65
2022/01/17 12:26:44;;;;;;;;;46.25;40.00;;;;;10.36;66.46;103612.81;5072700;28;49946;-66
2022/01/17 12:29:09;;;;;;;;;47.25;40.25;;;;;10.38;66.41;103634.84;5072278;27;49859;-66
2022/01/17 12:31:44;;;;;;;;;54.00;45.00;;;;;10.32;66.62;103622.19;5072425;28;49670;-65
2022/01/17 12:34:24;;;;;;;;;56.25;46.25;;;;;10.30;67.15;103618.56;5073167;28;49841;-65
2022/01/17 12:36:55;;;;;;;;;54.50;40.25;;;;;10.18;66.45;103612.47;5036987;28;49824;-65
2022/01/17 12:39:28;;;;;;;;;46.50;41.00;;;;;10.12;67.49;103633.03;5070739;28;50887;-65
2022/01/17 12:42:00;;;;;;;;;53.75;41.25;;;;;10.16;66.67;103605.28;5072130;28;49788;-65
2022/01/17 12:44:27;;;;;;;;;54.00;44.25;;;;;10.27;66.48;103591.19;5072559;28;49118;-65
2022/01/17 12:46:58;;;;;;;;;45.50;39.75;;;;;10.22;67.32;103575.13;5054172;28;49769;-65
2022/01/17 12:49:25;;;;;;;;;55.50;41.75;;;;;10.23;66.99;103562.91;5072132;28;49620;-64
2022/01/17 12:51:54;;;;;;;;;54.75;43.00;;;;;10.22;67.64;103540.09;5072306;28;49702;-65
2022/01/17 12:54:22;;;;;;;;;52.25;44.75;;;;;10.24;66.69;103544.66;5072441;28;50455;-65
2022/01/17 12:56:52;;;;;;;;;57.50;46.00;;;;;10.27;67.74;103529.09;5072253;28;49742;-65
2022/01/17 12:59:19;;;;;;;;;51.75;40.50;;;;;10.49;67.80;103557.66;5059633;28;51696;-65
2022/01/17 13:01:50;;;;;;;;;58.00;46.00;;;;;10.49;66.61;103546.25;5052884;28;49770;-64
2022/01/17 13:04:18;;;;;;;;;48.75;42.25;;;;;10.63;66.91;103568.19;5052848;28;49761;-65
2022/01/17 13:06:47;;;;;;;;;53.75;42.50;;;;;10.57;66.20;103559.09;5065772;28;49896;-65
2022/01/17 13:09:15;;;;;;;;;42.75;35.75;;;;;10.71;66.78;103564.31;5065856;28;49891;-65
2022/01/17 13:11:43;;;;;;;;;38.75;37.50;;;;;10.72;66.16;103543.41;5065679;28;49677;-65
2022/01/17 13:14:14;;;;;;;;;50.25;39.75;;;;;10.59;65.40;103511.91;5065913;28;49839;-65
2022/01/17 13:16:40;;;;;;;;;42.50;38.75;;;;;10.56;64.75;103511.72;5066497;28;50015;-65
2022/01/17 13:19:09;;;;;;;;;47.75;38.50;;;;;10.46;64.24;103496.16;5071921;28;50839;-65
2022/01/17 13:21:38;;;;;;;;;43.25;39.00;;;;;10.64;64.55;103538.47;5071864;28;49782;-65
2022/01/17 13:26:56;;;;;;;;;46.25;39.00;;;;;10.65;65.26;103529.78;5071577;28;49776;-65
2022/01/17 13:29:23;;;;;;;;;45.25;38.00;;;;;10.49;65.07;103504.22;5071425;27;49723;-65
2022/01/17 13:31:48;;;;;;;;;37.75;34.25;;;;;10.82;65.08;103561.59;5071449;28;49669;-65
2022/01/17 13:34:17;;;;;;;;;40.75;38.00;;;;;10.86;63.84;103566.22;5039716;28;49759;-65
2022/01/17 13:36:47;;;;;;;;;48.25;39.75;;;;;10.85;65.16;103579.25;5052698;28;50118;-65
2022/01/17 13:39:18;;;;;;;;;38.50;36.00;;;;;10.91;64.21;103598.06;5071266;28;49977;-65
2022/01/17 13:42:04;;;;;;;;;43.25;36.00;;;;;10.82;64.36;103571.19;5071391;28;49880;-65
2022/01/17 13:44:33;;;;;;;;;37.50;31.00;;;;;10.99;64.08;103591.56;5071350;28;49767;-64
2022/01/17 13:47:08;;;;;;;;;35.00;32.00;;;;;10.73;63.08;103541.69;5065335;28;49698;-65
2022/01/17 13:49:41;;;;;;;;;42.50;36.75;;;;;10.77;63.91;103543.69;5051796;28;50983;-64
2022/01/17 13:52:08;;;;;;;;;31.75;29.00;;;;;10.71;64.10;103528.47;5033094;28;49725;-65
2022/01/17 13:54:36;;;;;;;;;35.75;33.00;;;;;10.45;64.63;103470.72;5051795;28;49749;-65
2022/01/17 13:57:11;;;;;;;;;43.75;35.25;;;;;10.52;64.12;103486.97;5051863;28;49878;-65
2022/01/17 13:59:36;;;;;;;;;36.00;32.00;;;;;10.51;63.90;103493.00;5051607;28;49785;-65
2022/01/17 14:02:13;;;;;;;;;37.75;30.50;;;;;10.49;65.01;103514.72;5051789;28;50084;-64
2022/01/17 14:04:41;;;;;;;;;35.25;33.75;;;;;10.49;64.52;103513.03;5046862;28;49832;-65
2022/01/17 14:07:20;;;;;;;;;38.50;30.50;;;;;10.34;64.80;103506.78;5051878;28;49864;-68
2022/01/17 14:09:46;;;;;;;;;25.50;24.75;;;;;10.29;64.72;103513.44;5045571;28;51006;-69
2022/01/17 14:12:12;;;;;;;;;33.75;32.25;;;;;10.07;64.46;103481.31;5054317;28;50434;-69
2022/01/17 14:14:37;;;;;;;;;36.00;32.00;;;;;10.17;65.01;103499.47;5048790;28;49880;-68
2022/01/17 14:17:03;;;;;;;;;34.00;31.50;;;;;10.29;64.47;103527.47;5055819;28;49816;-68
2022/01/17 14:19:32;;;;;;;;;36.25;29.00;;;;;10.16;65.85;103521.28;5060589;28;49857;-69
2022/01/17 14:22:04;;;;;;;;;42.25;37.75;;;;;10.26;65.41;103524.66;5055407;28;49786;-69
2022/01/17 14:24:45;;;;;;;;;39.00;36.00;;;;;10.41;65.63;103526.44;5051052;28;49706;-67
2022/01/17 14:27:20;;;;;;;;;46.50;39.00;;;;;10.27;65.39;103491.44;5036356;28;50314;-67
2022/01/17 14:29:47;;;;;;;;;34.50;32.75;;;;;10.40;65.56;103525.53;5058354;27;49831;-68
2022/01/17 14:32:15;;;;;;;;;36.00;34.50;;;;;10.01;65.29;103437.19;5057056;28;49853;-69
2022/01/17 14:34:43;;;;;;;;;35.50;33.00;;;;;10.57;65.32;103534.53;5052817;28;49781;-69
2022/01/17 14:37:21;;;;;;;;;38.50;34.50;;;;;10.40;65.00;103508.88;5063790;28;49787;-69
2022/01/17 14:39:55;;;;;;;;;34.25;28.75;;;;;10.49;64.10;103525.25;5061926;28;49986;-70
2022/01/17 14:42:29;;;;;;;;;34.00;29.25;;;;;10.63;64.80;103545.44;5050829;28;49960;-69
2022/01/17 14:44:57;;;;;;;;;31.25;31.00;;;;;10.44;64.02;103513.53;5048161;28;50413;-69
2022/01/17 14:47:24;;;;;;;;;35.25;30.50;;;;;10.46;63.47;103532.94;5054387;28;49872;-70
2022/01/17 14:49:56;;;;;;;;;32.00;30.75;;;;;10.52;64.28;103560.50;5051759;28;51204;-71
2022/01/17 14:52:30;;;;;;;;;28.00;25.75;;;;;10.47;64.20;103553.13;5059853;28;49695;-70
2022/01/17 15:02:54;;;;;;;;;37.50;32.25;;;;;10.21;64.31;103528.66;5054557;28;49595;-69
2022/01/17 15:05:19;;;;;;;;;28.25;28.00;;;;;10.07;64.47;103499.69;5076751;28;49347;-70
2022/01/17 15:07:46;;;;;;;;;30.25;28.25;;;;;10.29;64.94;103543.22;5054792;28;49702;-69
2022/01/17 15:10:12;;;;;;;;;29.75;27.00;;;;;10.01;64.62;103505.41;5058111;28;50515;-69
2022/01/17 15:12:37;;;;;;;;;25.75;21.50;;;;;10.27;65.31;103550.09;5062028;28;49734;-68
2022/01/17 15:15:03;;;;;;;;;33.00;24.50;;;;;10.21;64.70;103539.16;5063739;28;49631;-68
2022/01/17 15:17:32;;;;;;;;;39.00;26.25;;;;;10.08;64.57;103509.38;5065394;28;49770;-70
2022/01/17 15:19:58;;;;;;;;;27.00;26.00;;;;;10.19;64.87;103531.97;5031945;28;51617;-69
2022/01/17 15:22:23;;;;;;;;;32.50;28.25;;;;;10.20;64.46;103542.59;5065310;28;49702;-68
2022/01/17 15:24:49;;;;;;;;;24.25;22.25;;;;;10.27;64.53;103565.84;5063407;28;49906;-69
2022/01/17 15:27:15;;;;;;;;;25.00;24.00;;;;;10.15;65.21;103543.09;5060047;28;49927;-68
2022/01/17 15:29:41;;;;;;;;;39.00;30.50;;;;;10.29;64.95;103565.94;5049687;28;50505;-69
2022/01/17 15:32:08;;;;;;;;;29.00;25.25;;;;;10.32;64.98;103579.28;5050295;28;50017;-68
2022/01/17 15:34:35;;;;;;;;;29.00;27.25;;;;;10.20;64.88;103558.34;5032511;28;50008;-68
2022/01/17 15:37:01;;;;;;;;;28.25;23.50;;;;;9.78;64.33;103474.13;5059142;28;49943;-68
2022/01/17 15:39:26;;;;;;;;;19.50;15.75;;;;;10.10;64.95;103531.38;5052324;28;50817;-68
2022/01/17 15:41:52;;;;;;;;;31.25;26.75;;;;;10.05;65.27;103523.22;5030919;28;49711;-69
2022/01/17 15:44:17;;;;;;;;;30.75;28.75;;;;;9.95;65.25;103510.28;5050909;28;49841;-68
2022/01/17 15:46:43;;;;;;;;;30.75;28.00;;;;;9.96;65.32;103525.22;5052378;28;49766;-69
2022/01/17 15:49:10;;;;;;;;;29.25;25.00;;;;;10.20;65.37;103571.47;5049556;28;49710;-68
2022/01/17 15:51:35;;;;;;;;;34.00;31.50;;;;;10.18;65.20;103567.81;5032355;28;50039;-68
2022/01/17 15:54:01;;;;;;;;;32.50;28.25;;;;;9.46;65.60;103446.63;5053831;28;49913;-70
2022/01/17 15:56:27;;;;;;;;;29.00;28.00;;;;;9.92;65.45;103544.16;5059340;28;49761;-68
2022/01/17 15:58:52;;;;;;;;;34.00;31.50;;;;;9.95;65.69;103571.53;5052867;28;50191;-73
2022/01/17 16:01:17;;;;;;;;;30.75;26.25;;;;;9.86;65.55;103555.16;5055960;28;49749;-73
2022/01/17 16:03:43;;;;;;;;;29.25;25.75;;;;;9.96;66.21;103570.72;5050991;28;50394;-72
2022/01/17 16:06:08;;;;;;;;;31.00;27.00;;;;;9.89;66.90;103567.56;5065953;28;49582;-68
2022/01/17 16:08:37;;;;;;;;;24.00;20.25;;;;;10.09;66.23;103596.09;5070344;28;49873;-68
2022/01/17 16:11:03;;;;;;;;;34.25;29.50;;;;;10.02;65.76;103606.97;5054912;28;50097;-73
2022/01/17 16:13:28;;;;;;;;;42.75;38.75;;;;;9.86;66.00;103589.28;5072508;28;49866;-65
2022/01/17 16:15:53;;;;;;;;;47.75;37.25;;;;;9.90;65.69;103603.50;5073035;28;49773;-64
2022/01/17 16:18:19;;;;;;;;;40.25;35.00;;;;;9.81;65.49;103603.78;5061268;28;49887;-65
2022/01/17 16:20:49;;;;;;;;;36.25;33.50;;;;;9.78;65.98;103603.56;5053885;28;49710;-63
2022/01/17 16:23:15;;;;;;;;;31.25;28.25;;;;;9.80;65.69;103625.56;5070375;28;49724;-65
2022/01/17 16:25:41;;;;;;;;;35.25;32.50;;;;;9.53;65.68;103579.06;5041597;28;49668;-65
2022/01/17 16:28:07;;;;;;;;;53.50;43.00;;;;;9.67;65.72;103621.19;5072951;28;49932;-67
2022/01/17 16:30:34;;;;;;;;;54.25;40.00;;;;;9.62;65.75;103616.41;5071943;27;49816;-67
2022/01/17 16:33:00;;;;;;;;;42.25;34.75;;;;;9.60;66.30;103626.81;5052797;28;49819;-67
2022/01/17 16:35:26;;;;;;;;;56.50;43.50;;;;;9.43;64.81;103611.59;5060485;28;50286;-67
2022/01/17 16:37:51;;;;;;;;;33.75;28.25;;;;;9.40;66.19;103611.38;5058592;28;51424;-66
2022/01/17 16:40:18;;;;;;;;;46.50;40.00;;;;;9.31;65.98;103602.88;5059221;28;49632;-67
2022/01/17 16:42:43;;;;;;;;;53.75;44.00;;;;;9.29;66.14;103613.25;5058186;28;49772;-67
2022/01/17 16:45:09;;;;;;;;;42.50;36.75;;;;;8.78;66.10;103532.72;5059494;28;49587;-66
2022/01/17 16:47:35;;;;;;;;;44.50;38.00;;;;;9.04;65.01;103592.22;5034653;28;52175;-68
2022/01/17 16:50:01;;;;;;;;;33.50;33.50;;;;;8.98;65.70;103585.66;5034674;28;49819;-68
2022/01/17 16:52:27;;;;;;;;;37.00;34.00;;;;;9.08;66.76;103615.25;5053345;28;49890;-68
2022/01/17 16:54:53;;;;;;;;;49.75;42.25;;;;;8.88;66.47;103594.56;5053267;28;49702;-69
2022/01/17 16:57:19;;;;;;;;;77.25;58.75;;;;;8.84;67.05;103598.63;5052161;28;50820;-68
2022/01/17 16:59:45;;;;;;;;;41.25;36.25;;;;;8.60;65.78;103568.97;5034109;28;49770;-68
2022/01/17 17:02:11;;;;;;;;;46.75;40.00;;;;;8.40;66.53;103542.13;5049564;28;49702;-66
2022/01/17 17:04:36;;;;;;;;;39.75;35.25;;;;;8.44;67.00;103583.41;5068006;28;49873;-67
2022/01/17 17:07:03;;;;;;;;;42.25;36.25;;;;;8.35;67.05;103551.31;5051759;28;49907;-65
2022/01/17 17:09:28;;;;;;;;;47.75;39.00;;;;;8.64;67.34;103601.50;5060530;28;49737;-65
2022/01/17 17:11:54;;;;;;;;;59.75;48.75;;;;;8.17;67.27;103519.41;5071899;28;49823;-64
2022/01/17 17:14:22;;;;;;;;;53.50;43.75;;;;;8.44;67.96;103566.00;5071586;28;50335;-63
2022/01/17 17:17:07;;;;;;;;;47.25;39.00;;;;;8.61;68.09;103596.06;5038086;28;52131;-76
2022/01/17 17:19:32;;;;;;;;;47.00;41.25;;;;;8.63;68.20;103622.34;5051986;28;49872;-63
2022/01/17 17:21:58;;;;;;;;;49.00;39.00;;;;;8.41;68.37;103606.75;5052126;28;49836;-66
2022/01/17 17:24:23;;;;;;;;;49.25;40.50;;;;;8.20;68.18;103566.75;5052223;28;49599;-66
2022/01/17 17:26:49;;;;;;;;;47.50;40.75;;;;;8.24;68.87;103592.38;5049820;28;52044;-65
2022/01/17 17:29:16;;;;;;;;;40.00;36.00;;;;;8.36;68.49;103621.19;5052173;28;49880;-65
2022/01/17 17:31:42;;;;;;;;;39.25;33.25;;;;;8.13;68.42;103599.41;5051287;28;50118;-68
2022/01/17 17:34:08;;;;;;;;;46.50;39.50;;;;;8.26;69.23;103633.56;5052062;28;49955;-67
2022/01/17 17:36:34;;;;;;;;;53.00;41.75;;;;;8.21;69.04;103634.94;5051607;28;50646;-67
2022/01/17 17:39:00;;;;;;;;;44.75;37.25;;;;;7.89;69.28;103585.34;5051890;28;49736;-67
2022/01/17 17:41:30;;;;;;;;;38.25;36.00;;;;;8.06;69.44;103635.44;5051496;28;49892;-67
2022/01/17 17:43:57;;;;;;;;;39.75;35.25;;;;;8.07;69.26;103634.66;5051917;28;49957;-66
2022/01/17 17:46:24;;;;;;;;;39.75;35.00;;;;;8.08;69.40;103632.16;5051534;28;49938;-67
2022/01/17 17:48:49;;;;;;;;;43.75;38.00;;;;;7.98;69.28;103622.69;5051734;28;50000;-67
2022/01/17 17:51:15;;;;;;;;;38.00;32.75;;;;;7.95;68.94;103627.69;5051536;28;49695;-67
2022/01/17 17:53:45;;;;;;;;;39.25;35.75;;;;;7.86;69.15;103623.44;5051962;28;49806;-67
2022/01/17 17:56:10;;;;;;;;;41.25;36.50;;;;;7.78;69.54;103614.09;5051309;28;49952;-68
2022/01/17 17:58:36;;;;;;;;;39.00;35.00;;;;;7.84;69.10;103632.88;5051601;28;49901;-67
2022/01/17 18:01:02;;;;;;;;;30.50;25.00;;;;;7.62;69.27;103594.59;5051620;28;50389;-67
2022/01/17 18:03:27;;;;;;;;;34.00;30.50;;;;;7.55;69.91;103589.69;5051770;28;49793;-67
2022/01/17 18:05:55;;;;;;;;;37.00;32.50;;;;;7.79;69.51;103637.75;5046468;28;51982;-73
2022/01/17 18:08:20;;;;;;;;;43.00;39.00;;;;;7.40;69.63;103568.50;5051340;28;49790;-69
2022/01/17 18:10:46;;;;;;;;;51.50;39.50;;;;;7.15;70.00;103536.94;5051278;28;49728;-72
2022/01/17 18:13:12;;;;;;;;;40.75;37.25;;;;;7.72;70.03;103632.81;5051001;28;49762;-71
2022/01/17 18:15:37;;;;;;;;;50.50;40.50;;;;;7.68;69.98;103636.91;5050515;28;49999;-68
2022/01/17 18:18:03;;;;;;;;;55.75;45.50;;;;;7.11;69.61;103541.78;5051221;28;49903;-71
2022/01/17 18:20:29;;;;;;;;;61.00;47.50;;;;;7.38;69.71;103584.84;5049823;28;49772;-67